sensor_id;sensor_type;location;lat;lon;timestamp;P1;durP1;ratioP1;P2;durP2;ratioP2
31652;SDS011;18261;53.648;9.910;2023-06-22T00:00:43;12.00;;;5.18;;
31652;SDS011;18261;53.648;9.910;2023-06-22T00:03:09;11.05;;;4.80;;
31652;SDS011;18261;53.648;9.910;2023-06-22T00:05:35;9.80;;;5.15;;
31652;SDS011;18261;53.648;9.910;2023-06-22T00:08:02;8.95;;;5.05;;
31652;SDS011;18261;53.648;9.910;2023-06-22T00:10:29;10.30;;;5.32;;
31652;SDS011;18261;53.648;9.910;2023-06-22T00:12:56;9.60;;;4.50;;
31652;SDS011;18261;53.648;9.910;2023-06-22T00:15:22;10.23;;;5.13;;
31652;SDS011;18261;53.648;9.910;2023-06-22T00:17:48;10.20;;;5.22;;
31652;SDS011;18261;53.648;9.910;2023-06-22T00:20:14;9.82;;;4.80;;
31652;SDS011;18261;53.648;9.910;2023-06-22T00:22:42;10.80;;;4.55;;
31652;SDS011;18261;53.648;9.910;2023-06-22T00:25:08;7.22;;;4.50;;
31652;SDS011;18261;53.648;9.910;2023-06-22T00:27:35;9.68;;;5.40;;
31652;SDS011;18261;53.648;9.910;2023-06-22T00:30:01;8.45;;;4.60;;
31652;SDS011;18261;53.648;9.910;2023-06-22T00:32:27;8.52;;;4.47;;
31652;SDS011;18261;53.648;9.910;2023-06-22T00:34:53;10.18;;;4.50;;
31652;SDS011;18261;53.648;9.910;2023-06-22T00:37:19;9.00;;;4.60;;
31652;SDS011;18261;53.648;9.910;2023-06-22T00:39:46;10.38;;;4.95;;
31652;SDS011;18261;53.648;9.910;2023-06-22T00:42:12;7.22;;;5.13;;
31652;SDS011;18261;53.648;9.910;2023-06-22T00:44:38;10.32;;;4.97;;
31652;SDS011;18261;53.648;9.910;2023-06-22T00:47:04;9.70;;;5.40;;
31652;SDS011;18261;53.648;9.910;2023-06-22T00:49:31;9.07;;;6.22;;
31652;SDS011;18261;53.648;9.910;2023-06-22T00:51:57;11.95;;;5.53;;
31652;SDS011;18261;53.648;9.910;2023-06-22T00:54:24;8.45;;;5.07;;
31652;SDS011;18261;53.648;9.910;2023-06-22T00:56:53;10.35;;;5.43;;
31652;SDS011;18261;53.648;9.910;2023-06-22T00:59:21;7.20;;;5.07;;
31652;SDS011;18261;53.648;9.910;2023-06-22T01:01:47;7.53;;;5.03;;
31652;SDS011;18261;53.648;9.910;2023-06-22T01:04:13;8.27;;;5.20;;
31652;SDS011;18261;53.648;9.910;2023-06-22T01:06:41;7.30;;;4.95;;
31652;SDS011;18261;53.648;9.910;2023-06-22T01:09:17;7.35;;;4.75;;
31652;SDS011;18261;53.648;9.910;2023-06-22T01:11:45;9.82;;;5.05;;
31652;SDS011;18261;53.648;9.910;2023-06-22T01:14:15;8.27;;;5.05;;
31652;SDS011;18261;53.648;9.910;2023-06-22T01:16:41;10.70;;;5.68;;
31652;SDS011;18261;53.648;9.910;2023-06-22T01:19:16;7.25;;;5.05;;
31652;SDS011;18261;53.648;9.910;2023-06-22T01:21:46;6.70;;;4.72;;
31652;SDS011;18261;53.648;9.910;2023-06-22T01:24:15;9.75;;;5.05;;
31652;SDS011;18261;53.648;9.910;2023-06-22T01:26:57;9.45;;;5.45;;
31652;SDS011;18261;53.648;9.910;2023-06-22T01:29:24;10.50;;;5.25;;
31652;SDS011;18261;53.648;9.910;2023-06-22T01:31:51;7.95;;;5.03;;
31652;SDS011;18261;53.648;9.910;2023-06-22T01:34:20;9.70;;;5.35;;
31652;SDS011;18261;53.648;9.910;2023-06-22T01:36:47;7.50;;;5.57;;
31652;SDS011;18261;53.648;9.910;2023-06-22T01:39:13;8.45;;;5.57;;
31652;SDS011;18261;53.648;9.910;2023-06-22T01:41:39;10.30;;;5.40;;
31652;SDS011;18261;53.648;9.910;2023-06-22T01:44:07;9.77;;;5.68;;
31652;SDS011;18261;53.648;9.910;2023-06-22T01:46:37;8.93;;;5.45;;
31652;SDS011;18261;53.648;9.910;2023-06-22T01:49:04;10.20;;;5.60;;
31652;SDS011;18261;53.648;9.910;2023-06-22T01:51:30;6.82;;;4.97;;
31652;SDS011;18261;53.648;9.910;2023-06-22T01:53:56;9.52;;;5.50;;
31652;SDS011;18261;53.648;9.910;2023-06-22T01:56:22;8.73;;;5.90;;
31652;SDS011;18261;53.648;9.910;2023-06-22T01:58:50;8.52;;;5.72;;
31652;SDS011;18261;53.648;9.910;2023-06-22T02:01:18;10.68;;;6.47;;
31652;SDS011;18261;53.648;9.910;2023-06-22T02:03:59;8.38;;;5.85;;
31652;SDS011;18261;53.648;9.910;2023-06-22T02:06:29;9.95;;;6.32;;
31652;SDS011;18261;53.648;9.910;2023-06-22T02:09:01;10.25;;;7.25;;
31652;SDS011;18261;53.648;9.910;2023-06-22T02:11:27;14.30;;;6.82;;
31652;SDS011;18261;53.648;9.910;2023-06-22T02:13:55;11.10;;;7.18;;
31652;SDS011;18261;53.648;9.910;2023-06-22T02:16:21;10.32;;;6.78;;
31652;SDS011;18261;53.648;9.910;2023-06-22T02:18:48;10.95;;;6.30;;
31652;SDS011;18261;53.648;9.910;2023-06-22T02:21:17;10.15;;;6.45;;
31652;SDS011;18261;53.648;9.910;2023-06-22T02:23:43;9.20;;;6.80;;
31652;SDS011;18261;53.648;9.910;2023-06-22T02:26:09;11.05;;;6.07;;
31652;SDS011;18261;53.648;9.910;2023-06-22T02:28:35;13.38;;;6.65;;
31652;SDS011;18261;53.648;9.910;2023-06-22T02:31:01;11.88;;;6.75;;
31652;SDS011;18261;53.648;9.910;2023-06-22T02:33:27;8.80;;;6.28;;
31652;SDS011;18261;53.648;9.910;2023-06-22T02:35:53;12.13;;;6.18;;
31652;SDS011;18261;53.648;9.910;2023-06-22T02:38:19;8.98;;;6.32;;
31652;SDS011;18261;53.648;9.910;2023-06-22T02:40:46;8.80;;;5.97;;
31652;SDS011;18261;53.648;9.910;2023-06-22T02:43:12;8.57;;;5.82;;
31652;SDS011;18261;53.648;9.910;2023-06-22T02:45:38;13.13;;;6.50;;
31652;SDS011;18261;53.648;9.910;2023-06-22T02:48:04;10.77;;;6.80;;
31652;SDS011;18261;53.648;9.910;2023-06-22T02:50:30;10.75;;;6.43;;
31652;SDS011;18261;53.648;9.910;2023-06-22T02:52:56;9.43;;;6.40;;
31652;SDS011;18261;53.648;9.910;2023-06-22T02:55:23;11.45;;;7.43;;
31652;SDS011;18261;53.648;9.910;2023-06-22T02:57:49;9.55;;;6.22;;
31652;SDS011;18261;53.648;9.910;2023-06-22T03:00:17;9.65;;;6.40;;
31652;SDS011;18261;53.648;9.910;2023-06-22T03:02:44;11.88;;;6.55;;
31652;SDS011;18261;53.648;9.910;2023-06-22T03:05:11;7.88;;;5.45;;
31652;SDS011;18261;53.648;9.910;2023-06-22T03:07:41;10.43;;;6.15;;
31652;SDS011;18261;53.648;9.910;2023-06-22T03:10:08;9.43;;;6.63;;
31652;SDS011;18261;53.648;9.910;2023-06-22T03:12:34;12.77;;;6.90;;
31652;SDS011;18261;53.648;9.910;2023-06-22T03:15:00;10.40;;;5.18;;
31652;SDS011;18261;53.648;9.910;2023-06-22T03:17:26;9.98;;;5.85;;
31652;SDS011;18261;53.648;9.910;2023-06-22T03:19:52;10.25;;;6.10;;
31652;SDS011;18261;53.648;9.910;2023-06-22T03:22:19;10.38;;;6.72;;
31652;SDS011;18261;53.648;9.910;2023-06-22T03:24:45;9.80;;;5.93;;
31652;SDS011;18261;53.648;9.910;2023-06-22T03:27:11;8.23;;;6.00;;
31652;SDS011;18261;53.648;9.910;2023-06-22T03:29:37;9.85;;;6.30;;
31652;SDS011;18261;53.648;9.910;2023-06-22T03:32:03;12.75;;;7.10;;
31652;SDS011;18261;53.648;9.910;2023-06-22T03:34:30;10.32;;;7.00;;
31652;SDS011;18261;53.648;9.910;2023-06-22T03:36:58;11.95;;;6.32;;
31652;SDS011;18261;53.648;9.910;2023-06-22T03:39:24;9.48;;;6.18;;
31652;SDS011;18261;53.648;9.910;2023-06-22T03:41:50;11.32;;;5.93;;
31652;SDS011;18261;53.648;9.910;2023-06-22T03:44:16;8.70;;;6.22;;
31652;SDS011;18261;53.648;9.910;2023-06-22T03:46:42;8.73;;;5.97;;
31652;SDS011;18261;53.648;9.910;2023-06-22T03:49:08;12.93;;;8.35;;
31652;SDS011;18261;53.648;9.910;2023-06-22T03:51:34;11.15;;;8.02;;
31652;SDS011;18261;53.648;9.910;2023-06-22T03:54:00;15.05;;;8.13;;
31652;SDS011;18261;53.648;9.910;2023-06-22T03:56:26;14.30;;;8.13;;
31652;SDS011;18261;53.648;9.910;2023-06-22T03:58:52;12.30;;;8.50;;
31652;SDS011;18261;53.648;9.910;2023-06-22T04:01:18;13.68;;;9.20;;
31652;SDS011;18261;53.648;9.910;2023-06-22T04:03:44;12.52;;;8.52;;
31652;SDS011;18261;53.648;9.910;2023-06-22T04:06:13;16.77;;;10.25;;
31652;SDS011;18261;53.648;9.910;2023-06-22T04:08:39;21.23;;;10.55;;
31652;SDS011;18261;53.648;9.910;2023-06-22T04:11:05;19.52;;;11.10;;
31652;SDS011;18261;53.648;9.910;2023-06-22T04:13:31;18.88;;;10.30;;
31652;SDS011;18261;53.648;9.910;2023-06-22T04:15:57;18.10;;;10.07;;
31652;SDS011;18261;53.648;9.910;2023-06-22T04:18:26;14.45;;;9.75;;
31652;SDS011;18261;53.648;9.910;2023-06-22T04:20:52;14.60;;;10.02;;
31652;SDS011;18261;53.648;9.910;2023-06-22T04:23:18;17.05;;;9.70;;
31652;SDS011;18261;53.648;9.910;2023-06-22T04:25:44;23.35;;;10.60;;
31652;SDS011;18261;53.648;9.910;2023-06-22T04:28:10;14.57;;;9.70;;
31652;SDS011;18261;53.648;9.910;2023-06-22T04:30:37;15.90;;;9.57;;
31652;SDS011;18261;53.648;9.910;2023-06-22T04:33:12;14.23;;;9.35;;
31652;SDS011;18261;53.648;9.910;2023-06-22T04:35:38;15.73;;;9.27;;
31652;SDS011;18261;53.648;9.910;2023-06-22T04:38:06;14.80;;;9.45;;
31652;SDS011;18261;53.648;9.910;2023-06-22T04:40:32;14.75;;;8.75;;
31652;SDS011;18261;53.648;9.910;2023-06-22T04:42:58;15.10;;;9.02;;
31652;SDS011;18261;53.648;9.910;2023-06-22T04:45:27;18.00;;;9.52;;
31652;SDS011;18261;53.648;9.910;2023-06-22T04:47:56;15.10;;;9.45;;
31652;SDS011;18261;53.648;9.910;2023-06-22T04:50:22;19.30;;;10.18;;
31652;SDS011;18261;53.648;9.910;2023-06-22T04:52:49;17.95;;;9.50;;
31652;SDS011;18261;53.648;9.910;2023-06-22T04:55:15;16.73;;;9.10;;
31652;SDS011;18261;53.648;9.910;2023-06-22T04:57:43;21.77;;;11.20;;
31652;SDS011;18261;53.648;9.910;2023-06-22T05:00:13;14.68;;;9.02;;
31652;SDS011;18261;53.648;9.910;2023-06-22T05:02:42;15.68;;;10.05;;
31652;SDS011;18261;53.648;9.910;2023-06-22T05:05:09;16.92;;;9.27;;
31652;SDS011;18261;53.648;9.910;2023-06-22T05:07:39;13.48;;;8.65;;
31652;SDS011;18261;53.648;9.910;2023-06-22T05:10:08;11.52;;;8.18;;
31652;SDS011;18261;53.648;9.910;2023-06-22T05:12:34;16.50;;;8.20;;
31652;SDS011;18261;53.648;9.910;2023-06-22T05:15:00;18.30;;;8.75;;
31652;SDS011;18261;53.648;9.910;2023-06-22T05:17:26;14.32;;;7.88;;
31652;SDS011;18261;53.648;9.910;2023-06-22T05:19:53;15.32;;;8.20;;
31652;SDS011;18261;53.648;9.910;2023-06-22T05:22:20;13.23;;;8.05;;
31652;SDS011;18261;53.648;9.910;2023-06-22T05:24:46;17.88;;;9.23;;
31652;SDS011;18261;53.648;9.910;2023-06-22T05:27:12;15.82;;;8.82;;
31652;SDS011;18261;53.648;9.910;2023-06-22T05:29:39;16.98;;;8.82;;
31652;SDS011;18261;53.648;9.910;2023-06-22T05:32:05;16.13;;;8.07;;
31652;SDS011;18261;53.648;9.910;2023-06-22T05:34:31;11.25;;;7.57;;
31652;SDS011;18261;53.648;9.910;2023-06-22T05:36:57;14.82;;;8.93;;
31652;SDS011;18261;53.648;9.910;2023-06-22T05:39:26;17.05;;;8.52;;
31652;SDS011;18261;53.648;9.910;2023-06-22T05:41:52;14.07;;;7.95;;
31652;SDS011;18261;53.648;9.910;2023-06-22T05:44:18;13.15;;;7.55;;
31652;SDS011;18261;53.648;9.910;2023-06-22T05:46:45;14.40;;;7.05;;
31652;SDS011;18261;53.648;9.910;2023-06-22T05:49:14;14.52;;;6.60;;
31652;SDS011;18261;53.648;9.910;2023-06-22T05:51:41;13.90;;;8.32;;
31652;SDS011;18261;53.648;9.910;2023-06-22T05:54:07;12.88;;;7.55;;
31652;SDS011;18261;53.648;9.910;2023-06-22T05:56:34;17.45;;;6.45;;
31652;SDS011;18261;53.648;9.910;2023-06-22T05:59:00;10.73;;;7.47;;
31652;SDS011;18261;53.648;9.910;2023-06-22T06:01:26;12.60;;;6.35;;
31652;SDS011;18261;53.648;9.910;2023-06-22T06:03:52;12.65;;;7.45;;
31652;SDS011;18261;53.648;9.910;2023-06-22T06:06:18;14.43;;;6.80;;
31652;SDS011;18261;53.648;9.910;2023-06-22T06:08:53;12.02;;;7.15;;
31652;SDS011;18261;53.648;9.910;2023-06-22T06:11:20;13.90;;;7.70;;
31652;SDS011;18261;53.648;9.910;2023-06-22T06:13:46;14.93;;;6.72;;
31652;SDS011;18261;53.648;9.910;2023-06-22T06:16:12;13.90;;;7.28;;
31652;SDS011;18261;53.648;9.910;2023-06-22T06:18:38;13.18;;;6.28;;
31652;SDS011;18261;53.648;9.910;2023-06-22T06:21:04;12.13;;;6.43;;
31652;SDS011;18261;53.648;9.910;2023-06-22T06:23:30;16.75;;;5.70;;
31652;SDS011;18261;53.648;9.910;2023-06-22T06:25:56;12.27;;;6.13;;
31652;SDS011;18261;53.648;9.910;2023-06-22T06:28:22;10.80;;;5.50;;
31652;SDS011;18261;53.648;9.910;2023-06-22T06:30:49;9.63;;;5.75;;
31652;SDS011;18261;53.648;9.910;2023-06-22T06:33:16;9.23;;;5.40;;
31652;SDS011;18261;53.648;9.910;2023-06-22T06:35:42;8.73;;;4.22;;
31652;SDS011;18261;53.648;9.910;2023-06-22T06:38:08;6.75;;;4.32;;
31652;SDS011;18261;53.648;9.910;2023-06-22T06:40:35;8.98;;;3.85;;
31652;SDS011;18261;53.648;9.910;2023-06-22T06:43:01;9.13;;;4.90;;
31652;SDS011;18261;53.648;9.910;2023-06-22T06:45:27;8.38;;;4.00;;
31652;SDS011;18261;53.648;9.910;2023-06-22T06:47:55;5.95;;;3.25;;
31652;SDS011;18261;53.648;9.910;2023-06-22T06:50:21;14.38;;;5.72;;
31652;SDS011;18261;53.648;9.910;2023-06-22T06:52:47;7.63;;;4.45;;
31652;SDS011;18261;53.648;9.910;2023-06-22T06:55:15;10.18;;;5.03;;
31652;SDS011;18261;53.648;9.910;2023-06-22T06:57:41;9.32;;;4.10;;
31652;SDS011;18261;53.648;9.910;2023-06-22T07:00:08;19.02;;;8.18;;
31652;SDS011;18261;53.648;9.910;2023-06-22T07:02:37;19.52;;;9.50;;
31652;SDS011;18261;53.648;9.910;2023-06-22T07:05:05;17.83;;;8.90;;
31652;SDS011;18261;53.648;9.910;2023-06-22T07:07:31;22.42;;;10.18;;
31652;SDS011;18261;53.648;9.910;2023-06-22T07:09:57;44.42;;;20.42;;
31652;SDS011;18261;53.648;9.910;2023-06-22T07:12:23;17.83;;;9.75;;
31652;SDS011;18261;53.648;9.910;2023-06-22T07:14:49;25.92;;;13.80;;
31652;SDS011;18261;53.648;9.910;2023-06-22T07:17:16;20.30;;;8.85;;
31652;SDS011;18261;53.648;9.910;2023-06-22T07:19:42;12.25;;;5.57;;
31652;SDS011;18261;53.648;9.910;2023-06-22T07:22:08;8.32;;;4.20;;
31652;SDS011;18261;53.648;9.910;2023-06-22T07:24:34;14.82;;;7.13;;
31652;SDS011;18261;53.648;9.910;2023-06-22T07:27:00;9.38;;;4.55;;
31652;SDS011;18261;53.648;9.910;2023-06-22T07:29:27;9.02;;;5.47;;
31652;SDS011;18261;53.648;9.910;2023-06-22T07:31:53;16.33;;;5.57;;
31652;SDS011;18261;53.648;9.910;2023-06-22T07:34:21;10.43;;;5.10;;
31652;SDS011;18261;53.648;9.910;2023-06-22T07:36:47;11.93;;;5.13;;
31652;SDS011;18261;53.648;9.910;2023-06-22T07:39:13;10.32;;;4.47;;
31652;SDS011;18261;53.648;9.910;2023-06-22T07:41:40;6.88;;;3.92;;
31652;SDS011;18261;53.648;9.910;2023-06-22T07:44:06;12.93;;;5.95;;
31652;SDS011;18261;53.648;9.910;2023-06-22T07:46:32;11.32;;;5.30;;
31652;SDS011;18261;53.648;9.910;2023-06-22T07:48:58;6.97;;;4.53;;
31652;SDS011;18261;53.648;9.910;2023-06-22T07:51:24;9.02;;;3.95;;
31652;SDS011;18261;53.648;9.910;2023-06-22T07:53:51;8.07;;;4.55;;
31652;SDS011;18261;53.648;9.910;2023-06-22T07:56:17;5.80;;;3.42;;
31652;SDS011;18261;53.648;9.910;2023-06-22T07:58:45;9.90;;;3.67;;
31652;SDS011;18261;53.648;9.910;2023-06-22T08:01:11;10.75;;;4.65;;
31652;SDS011;18261;53.648;9.910;2023-06-22T08:03:37;6.97;;;4.03;;
31652;SDS011;18261;53.648;9.910;2023-06-22T08:06:04;6.95;;;3.90;;
31652;SDS011;18261;53.648;9.910;2023-06-22T08:08:30;6.28;;;3.63;;
31652;SDS011;18261;53.648;9.910;2023-06-22T08:10:56;6.97;;;3.80;;
31652;SDS011;18261;53.648;9.910;2023-06-22T08:13:23;10.10;;;4.68;;
31652;SDS011;18261;53.648;9.910;2023-06-22T08:15:49;6.95;;;3.83;;
31652;SDS011;18261;53.648;9.910;2023-06-22T08:18:15;9.45;;;3.60;;
31652;SDS011;18261;53.648;9.910;2023-06-22T08:20:41;5.65;;;3.30;;
31652;SDS011;18261;53.648;9.910;2023-06-22T08:23:07;8.77;;;3.70;;
31652;SDS011;18261;53.648;9.910;2023-06-22T08:25:33;5.97;;;3.28;;
31652;SDS011;18261;53.648;9.910;2023-06-22T08:28:00;9.05;;;3.70;;
31652;SDS011;18261;53.648;9.910;2023-06-22T08:30:26;10.75;;;3.53;;
31652;SDS011;18261;53.648;9.910;2023-06-22T08:32:52;4.88;;;3.13;;
31652;SDS011;18261;53.648;9.910;2023-06-22T08:35:19;13.20;;;4.50;;
31652;SDS011;18261;53.648;9.910;2023-06-22T08:37:45;7.95;;;3.50;;
31652;SDS011;18261;53.648;9.910;2023-06-22T08:40:16;7.00;;;3.33;;
31652;SDS011;18261;53.648;9.910;2023-06-22T08:42:44;11.75;;;3.50;;
31652;SDS011;18261;53.648;9.910;2023-06-22T08:45:10;6.45;;;3.80;;
31652;SDS011;18261;53.648;9.910;2023-06-22T08:47:36;10.25;;;3.67;;
31652;SDS011;18261;53.648;9.910;2023-06-22T08:50:02;7.05;;;3.30;;
31652;SDS011;18261;53.648;9.910;2023-06-22T08:52:28;6.88;;;3.35;;
31652;SDS011;18261;53.648;9.910;2023-06-22T08:54:54;6.03;;;3.33;;
31652;SDS011;18261;53.648;9.910;2023-06-22T08:57:21;6.80;;;3.22;;
31652;SDS011;18261;53.648;9.910;2023-06-22T08:59:47;3.47;;;2.67;;
31652;SDS011;18261;53.648;9.910;2023-06-22T09:02:13;9.32;;;3.40;;
31652;SDS011;18261;53.648;9.910;2023-06-22T09:04:39;6.97;;;2.83;;
31652;SDS011;18261;53.648;9.910;2023-06-22T09:07:05;7.68;;;3.00;;
31652;SDS011;18261;53.648;9.910;2023-06-22T09:09:31;8.50;;;2.95;;
31652;SDS011;18261;53.648;9.910;2023-06-22T09:11:58;5.82;;;3.15;;
31652;SDS011;18261;53.648;9.910;2023-06-22T09:14:24;4.68;;;2.50;;
31652;SDS011;18261;53.648;9.910;2023-06-22T09:16:50;6.95;;;2.65;;
31652;SDS011;18261;53.648;9.910;2023-06-22T09:19:16;8.38;;;3.20;;
31652;SDS011;18261;53.648;9.910;2023-06-22T09:21:42;4.13;;;2.85;;
31652;SDS011;18261;53.648;9.910;2023-06-22T09:24:08;6.25;;;3.20;;
31652;SDS011;18261;53.648;9.910;2023-06-22T09:26:34;5.63;;;3.22;;
31652;SDS011;18261;53.648;9.910;2023-06-22T09:29:00;7.43;;;3.20;;
31652;SDS011;18261;53.648;9.910;2023-06-22T09:31:26;12.00;;;3.95;;
31652;SDS011;18261;53.648;9.910;2023-06-22T09:33:52;6.65;;;3.08;;
31652;SDS011;18261;53.648;9.910;2023-06-22T09:36:19;5.38;;;3.75;;
31652;SDS011;18261;53.648;9.910;2023-06-22T09:38:45;6.53;;;4.22;;
31652;SDS011;18261;53.648;9.910;2023-06-22T09:41:11;7.60;;;3.00;;
31652;SDS011;18261;53.648;9.910;2023-06-22T09:43:37;4.93;;;2.40;;
31652;SDS011;18261;53.648;9.910;2023-06-22T09:46:03;6.85;;;3.40;;
31652;SDS011;18261;53.648;9.910;2023-06-22T09:48:29;9.98;;;3.80;;
31652;SDS011;18261;53.648;9.910;2023-06-22T09:50:55;8.75;;;4.20;;
31652;SDS011;18261;53.648;9.910;2023-06-22T09:53:21;8.02;;;3.50;;
31652;SDS011;18261;53.648;9.910;2023-06-22T09:55:47;6.47;;;3.58;;
31652;SDS011;18261;53.648;9.910;2023-06-22T09:58:13;10.68;;;3.63;;
31652;SDS011;18261;53.648;9.910;2023-06-22T10:00:39;7.20;;;2.92;;
31652;SDS011;18261;53.648;9.910;2023-06-22T10:03:06;6.68;;;4.00;;
31652;SDS011;18261;53.648;9.910;2023-06-22T10:05:32;6.85;;;3.17;;
31652;SDS011;18261;53.648;9.910;2023-06-22T10:07:59;6.32;;;2.95;;
31652;SDS011;18261;53.648;9.910;2023-06-22T10:10:24;7.90;;;3.40;;
31652;SDS011;18261;53.648;9.910;2023-06-22T10:12:57;8.52;;;3.70;;
31652;SDS011;18261;53.648;9.910;2023-06-22T10:15:28;9.05;;;3.67;;
31652;SDS011;18261;53.648;9.910;2023-06-22T10:17:54;7.43;;;3.40;;
31652;SDS011;18261;53.648;9.910;2023-06-22T10:20:20;7.88;;;3.53;;
31652;SDS011;18261;53.648;9.910;2023-06-22T10:22:47;7.63;;;3.70;;
31652;SDS011;18261;53.648;9.910;2023-06-22T10:25:13;7.72;;;3.08;;
31652;SDS011;18261;53.648;9.910;2023-06-22T10:27:39;7.70;;;3.65;;
31652;SDS011;18261;53.648;9.910;2023-06-22T10:30:08;7.60;;;3.47;;
31652;SDS011;18261;53.648;9.910;2023-06-22T10:32:35;9.30;;;4.35;;
31652;SDS011;18261;53.648;9.910;2023-06-22T10:35:01;7.25;;;3.42;;
31652;SDS011;18261;53.648;9.910;2023-06-22T10:37:27;9.63;;;4.30;;
31652;SDS011;18261;53.648;9.910;2023-06-22T10:39:53;9.60;;;3.78;;
31652;SDS011;18261;53.648;9.910;2023-06-22T10:42:19;6.88;;;3.80;;
31652;SDS011;18261;53.648;9.910;2023-06-22T10:44:45;6.55;;;3.83;;
31652;SDS011;18261;53.648;9.910;2023-06-22T10:47:11;5.30;;;3.47;;
31652;SDS011;18261;53.648;9.910;2023-06-22T10:49:38;7.43;;;3.70;;
31652;SDS011;18261;53.648;9.910;2023-06-22T10:52:05;8.90;;;4.00;;
31652;SDS011;18261;53.648;9.910;2023-06-22T10:54:32;5.22;;;2.97;;
31652;SDS011;18261;53.648;9.910;2023-06-22T10:56:58;6.70;;;3.85;;
31652;SDS011;18261;53.648;9.910;2023-06-22T10:59:24;9.63;;;3.40;;
31652;SDS011;18261;53.648;9.910;2023-06-22T11:01:51;6.68;;;3.72;;
31652;SDS011;18261;53.648;9.910;2023-06-22T11:04:17;6.20;;;3.30;;
31652;SDS011;18261;53.648;9.910;2023-06-22T11:06:43;6.32;;;3.92;;
31652;SDS011;18261;53.648;9.910;2023-06-22T11:09:09;6.93;;;3.97;;
31652;SDS011;18261;53.648;9.910;2023-06-22T11:11:35;6.72;;;4.50;;
31652;SDS011;18261;53.648;9.910;2023-06-22T11:14:01;7.68;;;5.00;;
31652;SDS011;18261;53.648;9.910;2023-06-22T11:16:27;5.40;;;3.63;;
31652;SDS011;18261;53.648;9.910;2023-06-22T11:18:53;6.82;;;3.53;;
31652;SDS011;18261;53.648;9.910;2023-06-22T11:21:19;9.50;;;3.40;;
31652;SDS011;18261;53.648;9.910;2023-06-22T11:23:45;5.40;;;3.47;;
31652;SDS011;18261;53.648;9.910;2023-06-22T11:26:11;6.05;;;4.15;;
31652;SDS011;18261;53.648;9.910;2023-06-22T11:28:37;5.93;;;3.20;;
31652;SDS011;18261;53.648;9.910;2023-06-22T11:31:03;5.40;;;3.50;;
31652;SDS011;18261;53.648;9.910;2023-06-22T11:33:29;6.00;;;3.42;;
31652;SDS011;18261;53.648;9.910;2023-06-22T11:35:55;7.35;;;4.03;;
31652;SDS011;18261;53.648;9.910;2023-06-22T11:38:22;6.55;;;3.70;;
31652;SDS011;18261;53.648;9.910;2023-06-22T11:40:48;8.70;;;4.28;;
31652;SDS011;18261;53.648;9.910;2023-06-22T11:43:14;6.25;;;3.80;;
31652;SDS011;18261;53.648;9.910;2023-06-22T11:45:40;5.75;;;3.70;;
31652;SDS011;18261;53.648;9.910;2023-06-22T11:48:06;9.45;;;4.40;;
31652;SDS011;18261;53.648;9.910;2023-06-22T11:50:33;6.38;;;5.30;;
31652;SDS011;18261;53.648;9.910;2023-06-22T11:53:01;7.22;;;4.30;;
31652;SDS011;18261;53.648;9.910;2023-06-22T11:55:28;8.40;;;4.20;;
31652;SDS011;18261;53.648;9.910;2023-06-22T11:57:54;8.73;;;4.10;;
31652;SDS011;18261;53.648;9.910;2023-06-22T12:04:01;9.52;;;4.53;;
31652;SDS011;18261;53.648;9.910;2023-06-22T12:06:30;7.97;;;4.15;;
31652;SDS011;18261;53.648;9.910;2023-06-22T12:08:57;6.95;;;4.35;;
31652;SDS011;18261;53.648;9.910;2023-06-22T12:11:23;6.07;;;4.18;;
31652;SDS011;18261;53.648;9.910;2023-06-22T12:13:49;7.00;;;3.83;;
31652;SDS011;18261;53.648;9.910;2023-06-22T12:16:15;11.48;;;4.50;;
31652;SDS011;18261;53.648;9.910;2023-06-22T12:18:41;7.13;;;3.92;;
31652;SDS011;18261;53.648;9.910;2023-06-22T12:21:07;7.03;;;4.13;;
31652;SDS011;18261;53.648;9.910;2023-06-22T12:23:33;5.07;;;3.47;;
31652;SDS011;18261;53.648;9.910;2023-06-22T12:25:59;9.50;;;4.32;;
31652;SDS011;18261;53.648;9.910;2023-06-22T12:28:26;10.90;;;4.60;;
31652;SDS011;18261;53.648;9.910;2023-06-22T12:30:52;12.45;;;4.82;;
31652;SDS011;18261;53.648;9.910;2023-06-22T12:33:18;12.13;;;4.57;;
31652;SDS011;18261;53.648;9.910;2023-06-22T12:35:45;7.53;;;4.78;;
31652;SDS011;18261;53.648;9.910;2023-06-22T12:38:13;4.88;;;4.10;;
31652;SDS011;18261;53.648;9.910;2023-06-22T12:40:39;7.38;;;4.95;;
31652;SDS011;18261;53.648;9.910;2023-06-22T12:43:05;6.38;;;4.45;;
31652;SDS011;18261;53.648;9.910;2023-06-22T12:45:32;9.30;;;4.35;;
31652;SDS011;18261;53.648;9.910;2023-06-22T12:47:59;13.82;;;4.60;;
31652;SDS011;18261;53.648;9.910;2023-06-22T12:50:25;7.97;;;4.43;;
31652;SDS011;18261;53.648;9.910;2023-06-22T12:52:51;7.05;;;4.00;;
31652;SDS011;18261;53.648;9.910;2023-06-22T12:55:17;9.30;;;4.60;;
31652;SDS011;18261;53.648;9.910;2023-06-22T12:57:43;9.25;;;4.70;;
31652;SDS011;18261;53.648;9.910;2023-06-22T13:00:09;8.73;;;3.78;;
31652;SDS011;18261;53.648;9.910;2023-06-22T13:02:36;10.15;;;4.15;;
31652;SDS011;18261;53.648;9.910;2023-06-22T13:05:02;8.07;;;4.38;;
31652;SDS011;18261;53.648;9.910;2023-06-22T13:07:30;9.98;;;4.20;;
31652;SDS011;18261;53.648;9.910;2023-06-22T13:09:56;11.30;;;4.63;;
31652;SDS011;18261;53.648;9.910;2023-06-22T13:12:22;9.18;;;4.22;;
31652;SDS011;18261;53.648;9.910;2023-06-22T13:14:48;6.47;;;4.13;;
31652;SDS011;18261;53.648;9.910;2023-06-22T13:17:14;6.05;;;4.60;;
31652;SDS011;18261;53.648;9.910;2023-06-22T13:19:40;6.88;;;4.80;;
31652;SDS011;18261;53.648;9.910;2023-06-22T13:24:51;6.75;;;4.65;;
31652;SDS011;18261;53.648;9.910;2023-06-22T13:27:17;6.40;;;4.72;;
31652;SDS011;18261;53.648;9.910;2023-06-22T13:29:43;9.43;;;4.68;;
31652;SDS011;18261;53.648;9.910;2023-06-22T13:32:09;12.68;;;4.97;;
31652;SDS011;18261;53.648;9.910;2023-06-22T13:34:35;9.02;;;4.72;;
31652;SDS011;18261;53.648;9.910;2023-06-22T13:37:01;7.88;;;4.75;;
31652;SDS011;18261;53.648;9.910;2023-06-22T13:39:27;7.10;;;4.78;;
31652;SDS011;18261;53.648;9.910;2023-06-22T13:41:53;5.55;;;4.70;;
31652;SDS011;18261;53.648;9.910;2023-06-22T13:44:19;10.07;;;5.18;;
31652;SDS011;18261;53.648;9.910;2023-06-22T13:46:47;7.93;;;5.45;;
31652;SDS011;18261;53.648;9.910;2023-06-22T13:49:13;7.40;;;5.50;;
31652;SDS011;18261;53.648;9.910;2023-06-22T13:51:39;6.80;;;5.35;;
31652;SDS011;18261;53.648;9.910;2023-06-22T13:54:05;10.30;;;5.80;;
31652;SDS011;18261;53.648;9.910;2023-06-22T13:56:31;15.23;;;6.88;;
31652;SDS011;18261;53.648;9.910;2023-06-22T13:58:58;8.40;;;5.00;;
31652;SDS011;18261;53.648;9.910;2023-06-22T14:01:24;7.63;;;5.57;;
31652;SDS011;18261;53.648;9.910;2023-06-22T14:03:50;11.82;;;9.60;;
31652;SDS011;18261;53.648;9.910;2023-06-22T14:06:16;7.65;;;5.93;;
31652;SDS011;18261;53.648;9.910;2023-06-22T14:08:42;7.30;;;4.88;;
31652;SDS011;18261;53.648;9.910;2023-06-22T14:11:08;11.73;;;4.65;;
31652;SDS011;18261;53.648;9.910;2023-06-22T14:13:34;9.52;;;5.13;;
31652;SDS011;18261;53.648;9.910;2023-06-22T14:16:00;6.55;;;5.60;;
31652;SDS011;18261;53.648;9.910;2023-06-22T14:18:26;8.38;;;5.82;;
31652;SDS011;18261;53.648;9.910;2023-06-22T14:20:52;7.30;;;5.22;;
31652;SDS011;18261;53.648;9.910;2023-06-22T14:23:18;8.70;;;5.75;;
31652;SDS011;18261;53.648;9.910;2023-06-22T14:25:44;8.07;;;4.95;;
31652;SDS011;18261;53.648;9.910;2023-06-22T14:28:10;11.27;;;5.07;;
31652;SDS011;18261;53.648;9.910;2023-06-22T14:30:36;10.15;;;5.50;;
31652;SDS011;18261;53.648;9.910;2023-06-22T14:33:02;8.30;;;5.10;;
31652;SDS011;18261;53.648;9.910;2023-06-22T14:35:28;8.90;;;5.15;;
31652;SDS011;18261;53.648;9.910;2023-06-22T14:37:54;12.32;;;5.20;;
31652;SDS011;18261;53.648;9.910;2023-06-22T14:40:20;8.63;;;5.30;;
31652;SDS011;18261;53.648;9.910;2023-06-22T14:42:46;8.13;;;6.00;;